sensor_id;sensor_type;location;lat;lon;timestamp;P1;durP1;ratioP1;P2;durP2;ratioP2
24743;SDS011;12844;52.110;5.548;2023-03-23T00:01:26;2.22;;;1.58;;
24743;SDS011;12844;52.110;5.548;2023-03-23T00:03:55;4.00;;;1.75;;
24743;SDS011;12844;52.110;5.548;2023-03-23T00:06:22;4.43;;;2.22;;
24743;SDS011;12844;52.110;5.548;2023-03-23T00:08:51;2.65;;;2.05;;
24743;SDS011;12844;52.110;5.548;2023-03-23T00:11:22;2.40;;;1.88;;
24743;SDS011;12844;52.110;5.548;2023-03-23T00:13:51;5.85;;;1.80;;
24743;SDS011;12844;52.110;5.548;2023-03-23T00:16:18;2.22;;;1.70;;
24743;SDS011;12844;52.110;5.548;2023-03-23T00:18:45;3.08;;;1.90;;
24743;SDS011;12844;52.110;5.548;2023-03-23T00:21:19;4.70;;;1.88;;
24743;SDS011;12844;52.110;5.548;2023-03-23T00:23:50;2.63;;;1.65;;
24743;SDS011;12844;52.110;5.548;2023-03-23T00:26:16;3.45;;;1.77;;
24743;SDS011;12844;52.110;5.548;2023-03-23T00:28:43;3.13;;;1.83;;
24743;SDS011;12844;52.110;5.548;2023-03-23T00:31:11;3.88;;;1.85;;
24743;SDS011;12844;52.110;5.548;2023-03-23T00:33:37;3.47;;;1.88;;
24743;SDS011;12844;52.110;5.548;2023-03-23T00:36:06;3.00;;;1.80;;
24743;SDS011;12844;52.110;5.548;2023-03-23T00:38:33;3.22;;;1.92;;
24743;SDS011;12844;52.110;5.548;2023-03-23T00:40:59;2.20;;;1.50;;
24743;SDS011;12844;52.110;5.548;2023-03-23T00:43:28;4.10;;;1.88;;
24743;SDS011;12844;52.110;5.548;2023-03-23T00:45:54;5.05;;;1.80;;
24743;SDS011;12844;52.110;5.548;2023-03-23T00:48:22;2.92;;;2.03;;
24743;SDS011;12844;52.110;5.548;2023-03-23T00:50:49;2.15;;;1.63;;
24743;SDS011;12844;52.110;5.548;2023-03-23T00:53:16;3.25;;;1.52;;
24743;SDS011;12844;52.110;5.548;2023-03-23T00:55:43;2.88;;;1.90;;
24743;SDS011;12844;52.110;5.548;2023-03-23T00:58:09;3.47;;;1.90;;
24743;SDS011;12844;52.110;5.548;2023-03-23T01:00:35;3.63;;;2.00;;
24743;SDS011;12844;52.110;5.548;2023-03-23T01:03:00;3.40;;;1.70;;
24743;SDS011;12844;52.110;5.548;2023-03-23T01:05:26;2.70;;;1.60;;
24743;SDS011;12844;52.110;5.548;2023-03-23T01:07:57;2.50;;;1.80;;
24743;SDS011;12844;52.110;5.548;2023-03-23T01:10:23;3.45;;;1.80;;
24743;SDS011;12844;52.110;5.548;2023-03-23T01:12:53;4.57;;;1.90;;
24743;SDS011;12844;52.110;5.548;2023-03-23T01:15:19;3.35;;;1.88;;
24743;SDS011;12844;52.110;5.548;2023-03-23T01:17:45;2.65;;;1.60;;
24743;SDS011;12844;52.110;5.548;2023-03-23T01:20:12;3.40;;;1.77;;
24743;SDS011;12844;52.110;5.548;2023-03-23T01:22:39;2.45;;;1.67;;
24743;SDS011;12844;52.110;5.548;2023-03-23T01:25:05;2.75;;;1.58;;
24743;SDS011;12844;52.110;5.548;2023-03-23T01:27:32;1.85;;;1.40;;
24743;SDS011;12844;52.110;5.548;2023-03-23T01:29:57;2.35;;;1.60;;
24743;SDS011;12844;52.110;5.548;2023-03-23T01:32:23;2.97;;;1.60;;
24743;SDS011;12844;52.110;5.548;2023-03-23T01:34:48;2.85;;;1.58;;
24743;SDS011;12844;52.110;5.548;2023-03-23T01:37:14;3.05;;;1.60;;
24743;SDS011;12844;52.110;5.548;2023-03-23T01:39:40;2.70;;;1.63;;
24743;SDS011;12844;52.110;5.548;2023-03-23T01:42:07;2.83;;;1.58;;
24743;SDS011;12844;52.110;5.548;2023-03-23T01:46:59;2.30;;;1.45;;
24743;SDS011;12844;52.110;5.548;2023-03-23T01:49:32;2.53;;;1.50;;
24743;SDS011;12844;52.110;5.548;2023-03-23T01:52:04;2.28;;;1.48;;
24743;SDS011;12844;52.110;5.548;2023-03-23T01:54:33;3.20;;;1.70;;
24743;SDS011;12844;52.110;5.548;2023-03-23T01:57:07;1.80;;;1.55;;
24743;SDS011;12844;52.110;5.548;2023-03-23T01:59:37;2.55;;;1.52;;
24743;SDS011;12844;52.110;5.548;2023-03-23T02:02:03;2.58;;;1.80;;
24743;SDS011;12844;52.110;5.548;2023-03-23T02:04:29;2.70;;;1.50;;
24743;SDS011;12844;52.110;5.548;2023-03-23T02:06:56;3.53;;;1.90;;
24743;SDS011;12844;52.110;5.548;2023-03-23T02:09:23;2.38;;;1.75;;
24743;SDS011;12844;52.110;5.548;2023-03-23T02:11:50;1.48;;;1.38;;
24743;SDS011;12844;52.110;5.548;2023-03-23T02:14:16;2.35;;;1.52;;
24743;SDS011;12844;52.110;5.548;2023-03-23T02:19:47;2.30;;;1.70;;
24743;SDS011;12844;52.110;5.548;2023-03-23T02:23:30;2.25;;;1.73;;
24743;SDS011;12844;52.110;5.548;2023-03-23T02:25:40;2.45;;;1.60;;
24743;SDS011;12844;52.110;5.548;2023-03-23T02:33:56;3.65;;;2.17;;
24743;SDS011;12844;52.110;5.548;2023-03-23T02:36:28;2.60;;;1.52;;
24743;SDS011;12844;52.110;5.548;2023-03-23T02:39:04;1.70;;;1.58;;
24743;SDS011;12844;52.110;5.548;2023-03-23T02:41:40;2.30;;;1.58;;
24743;SDS011;12844;52.110;5.548;2023-03-23T02:44:10;3.40;;;1.60;;
24743;SDS011;12844;52.110;5.548;2023-03-23T02:46:38;1.80;;;1.48;;
24743;SDS011;12844;52.110;5.548;2023-03-23T02:49:05;3.50;;;2.15;;
24743;SDS011;12844;52.110;5.548;2023-03-23T02:51:33;3.88;;;1.80;;
24743;SDS011;12844;52.110;5.548;2023-03-23T02:54:00;3.80;;;1.60;;
24743;SDS011;12844;52.110;5.548;2023-03-23T02:56:27;1.98;;;1.50;;
24743;SDS011;12844;52.110;5.548;2023-03-23T02:58:54;2.55;;;1.60;;
24743;SDS011;12844;52.110;5.548;2023-03-23T03:03:57;2.17;;;1.70;;
24743;SDS011;12844;52.110;5.548;2023-03-23T03:09:01;2.83;;;1.60;;
24743;SDS011;12844;52.110;5.548;2023-03-23T03:11:32;2.65;;;1.98;;
24743;SDS011;12844;52.110;5.548;2023-03-23T03:14:02;2.13;;;1.70;;
24743;SDS011;12844;52.110;5.548;2023-03-23T03:16:37;2.80;;;1.73;;
24743;SDS011;12844;52.110;5.548;2023-03-23T03:19:10;2.72;;;1.83;;
24743;SDS011;12844;52.110;5.548;2023-03-23T03:21:50;2.60;;;1.80;;
24743;SDS011;12844;52.110;5.548;2023-03-23T03:24:18;3.22;;;2.08;;
24743;SDS011;12844;52.110;5.548;2023-03-23T03:26:46;2.60;;;1.88;;
24743;SDS011;12844;52.110;5.548;2023-03-23T03:29:16;2.85;;;1.90;;
24743;SDS011;12844;52.110;5.548;2023-03-23T03:31:45;3.95;;;1.90;;
24743;SDS011;12844;52.110;5.548;2023-03-23T03:34:13;2.85;;;1.73;;
24743;SDS011;12844;52.110;5.548;2023-03-23T03:36:42;3.85;;;1.88;;
24743;SDS011;12844;52.110;5.548;2023-03-23T03:39:10;2.33;;;1.90;;
24743;SDS011;12844;52.110;5.548;2023-03-23T03:41:37;3.28;;;1.58;;
24743;SDS011;12844;52.110;5.548;2023-03-23T03:44:04;2.45;;;1.77;;
24743;SDS011;12844;52.110;5.548;2023-03-23T03:46:31;2.00;;;1.80;;
24743;SDS011;12844;52.110;5.548;2023-03-23T03:48:57;3.38;;;1.85;;
24743;SDS011;12844;52.110;5.548;2023-03-23T03:51:24;3.63;;;1.90;;
24743;SDS011;12844;52.110;5.548;2023-03-23T03:53:50;3.63;;;1.67;;
24743;SDS011;12844;52.110;5.548;2023-03-23T03:56:16;1.95;;;1.70;;
24743;SDS011;12844;52.110;5.548;2023-03-23T03:58:42;2.08;;;1.60;;
24743;SDS011;12844;52.110;5.548;2023-03-23T04:01:08;3.15;;;2.00;;
24743;SDS011;12844;52.110;5.548;2023-03-23T04:03:37;2.78;;;1.98;;
24743;SDS011;12844;52.110;5.548;2023-03-23T04:06:03;1.83;;;1.60;;
24743;SDS011;12844;52.110;5.548;2023-03-23T04:08:29;2.35;;;1.70;;
24743;SDS011;12844;52.110;5.548;2023-03-23T04:10:56;2.95;;;1.83;;
24743;SDS011;12844;52.110;5.548;2023-03-23T04:13:22;4.35;;;1.70;;
24743;SDS011;12844;52.110;5.548;2023-03-23T04:15:48;2.60;;;1.48;;
24743;SDS011;12844;52.110;5.548;2023-03-23T04:18:14;2.13;;;1.70;;
24743;SDS011;12844;52.110;5.548;2023-03-23T04:20:42;3.28;;;1.60;;
24743;SDS011;12844;52.110;5.548;2023-03-23T04:23:09;2.17;;;1.60;;
24743;SDS011;12844;52.110;5.548;2023-03-23T04:25:35;2.25;;;1.58;;
24743;SDS011;12844;52.110;5.548;2023-03-23T04:28:00;2.33;;;1.63;;
24743;SDS011;12844;52.110;5.548;2023-03-23T04:30:27;3.08;;;1.67;;
24743;SDS011;12844;52.110;5.548;2023-03-23T04:32:54;2.03;;;1.73;;
24743;SDS011;12844;52.110;5.548;2023-03-23T04:35:21;2.90;;;1.95;;
24743;SDS011;12844;52.110;5.548;2023-03-23T04:37:51;2.00;;;1.50;;
24743;SDS011;12844;52.110;5.548;2023-03-23T04:40:17;2.78;;;1.50;;
24743;SDS011;12844;52.110;5.548;2023-03-23T04:42:43;2.97;;;1.60;;
24743;SDS011;12844;52.110;5.548;2023-03-23T04:45:14;4.60;;;1.75;;
24743;SDS011;12844;52.110;5.548;2023-03-23T04:47:46;1.98;;;1.40;;
24743;SDS011;12844;52.110;5.548;2023-03-23T04:50:18;1.80;;;1.33;;
24743;SDS011;12844;52.110;5.548;2023-03-23T04:52:45;4.10;;;1.42;;
24743;SDS011;12844;52.110;5.548;2023-03-23T04:55:11;2.03;;;1.50;;
24743;SDS011;12844;52.110;5.548;2023-03-23T04:57:37;2.60;;;1.50;;
24743;SDS011;12844;52.110;5.548;2023-03-23T05:00:03;1.65;;;1.40;;
24743;SDS011;12844;52.110;5.548;2023-03-23T05:02:37;1.88;;;1.40;;
24743;SDS011;12844;52.110;5.548;2023-03-23T05:05:04;2.25;;;1.50;;
24743;SDS011;12844;52.110;5.548;2023-03-23T05:07:31;3.17;;;1.48;;
24743;SDS011;12844;52.110;5.548;2023-03-23T05:09:56;2.55;;;1.40;;
24743;SDS011;12844;52.110;5.548;2023-03-23T05:12:22;2.10;;;1.23;;
24743;SDS011;12844;52.110;5.548;2023-03-23T05:14:48;2.25;;;1.35;;
24743;SDS011;12844;52.110;5.548;2023-03-23T05:17:14;2.00;;;1.20;;
24743;SDS011;12844;52.110;5.548;2023-03-23T05:19:42;3.40;;;1.48;;
24743;SDS011;12844;52.110;5.548;2023-03-23T05:22:09;2.80;;;1.40;;
24743;SDS011;12844;52.110;5.548;2023-03-23T05:24:37;2.40;;;1.50;;
24743;SDS011;12844;52.110;5.548;2023-03-23T05:27:03;2.42;;;1.20;;
24743;SDS011;12844;52.110;5.548;2023-03-23T05:29:28;2.78;;;1.40;;
24743;SDS011;12844;52.110;5.548;2023-03-23T05:31:58;3.45;;;1.42;;
24743;SDS011;12844;52.110;5.548;2023-03-23T05:34:27;3.42;;;1.50;;
24743;SDS011;12844;52.110;5.548;2023-03-23T05:36:54;2.67;;;1.10;;
24743;SDS011;12844;52.110;5.548;2023-03-23T05:39:20;2.35;;;1.30;;
24743;SDS011;12844;52.110;5.548;2023-03-23T05:41:46;2.88;;;1.40;;
24743;SDS011;12844;52.110;5.548;2023-03-23T05:44:12;2.88;;;1.30;;
24743;SDS011;12844;52.110;5.548;2023-03-23T05:46:40;2.80;;;1.30;;
24743;SDS011;12844;52.110;5.548;2023-03-23T05:49:06;3.78;;;1.27;;
24743;SDS011;12844;52.110;5.548;2023-03-23T05:51:32;3.08;;;1.40;;
24743;SDS011;12844;52.110;5.548;2023-03-23T05:53:57;4.03;;;1.60;;
24743;SDS011;12844;52.110;5.548;2023-03-23T05:56:23;3.53;;;1.58;;
24743;SDS011;12844;52.110;5.548;2023-03-23T05:58:49;2.33;;;1.17;;
24743;SDS011;12844;52.110;5.548;2023-03-23T06:01:15;4.28;;;1.38;;
24743;SDS011;12844;52.110;5.548;2023-03-23T06:03:41;3.85;;;1.40;;
24743;SDS011;12844;52.110;5.548;2023-03-23T06:06:08;2.35;;;1.20;;
24743;SDS011;12844;52.110;5.548;2023-03-23T06:08:36;2.78;;;1.20;;
24743;SDS011;12844;52.110;5.548;2023-03-23T06:11:03;2.22;;;1.00;;
24743;SDS011;12844;52.110;5.548;2023-03-23T06:13:29;1.98;;;1.20;;
24743;SDS011;12844;52.110;5.548;2023-03-23T06:15:55;2.03;;;1.00;;
24743;SDS011;12844;52.110;5.548;2023-03-23T06:18:23;3.08;;;1.30;;
24743;SDS011;12844;52.110;5.548;2023-03-23T06:20:50;2.42;;;1.20;;
24743;SDS011;12844;52.110;5.548;2023-03-23T06:23:16;2.55;;;1.20;;
24743;SDS011;12844;52.110;5.548;2023-03-23T06:25:42;1.98;;;1.20;;
24743;SDS011;12844;52.110;5.548;2023-03-23T06:28:08;2.85;;;1.30;;
24743;SDS011;12844;52.110;5.548;2023-03-23T06:30:34;2.72;;;1.30;;
24743;SDS011;12844;52.110;5.548;2023-03-23T06:33:01;2.67;;;1.20;;
24743;SDS011;12844;52.110;5.548;2023-03-23T06:35:30;2.25;;;1.00;;
24743;SDS011;12844;52.110;5.548;2023-03-23T06:37:58;2.22;;;1.20;;
24743;SDS011;12844;52.110;5.548;2023-03-23T06:40:26;2.38;;;1.40;;
24743;SDS011;12844;52.110;5.548;2023-03-23T06:42:53;2.67;;;1.30;;
24743;SDS011;12844;52.110;5.548;2023-03-23T06:45:19;2.53;;;1.17;;
24743;SDS011;12844;52.110;5.548;2023-03-23T06:47:44;3.38;;;1.33;;
24743;SDS011;12844;52.110;5.548;2023-03-23T06:50:10;2.17;;;1.00;;
24743;SDS011;12844;52.110;5.548;2023-03-23T06:52:36;1.75;;;1.10;;
24743;SDS011;12844;52.110;5.548;2023-03-23T06:55:01;2.88;;;1.20;;
24743;SDS011;12844;52.110;5.548;2023-03-23T06:57:27;4.22;;;1.35;;
24743;SDS011;12844;52.110;5.548;2023-03-23T06:59:53;2.25;;;1.20;;
24743;SDS011;12844;52.110;5.548;2023-03-23T07:02:18;3.22;;;1.05;;
24743;SDS011;12844;52.110;5.548;2023-03-23T07:04:44;3.22;;;1.40;;
24743;SDS011;12844;52.110;5.548;2023-03-23T07:07:10;3.67;;;1.10;;
24743;SDS011;12844;52.110;5.548;2023-03-23T07:09:39;3.15;;;1.40;;
24743;SDS011;12844;52.110;5.548;2023-03-23T07:12:05;2.45;;;1.33;;
24743;SDS011;12844;52.110;5.548;2023-03-23T07:14:30;2.33;;;1.10;;
24743;SDS011;12844;52.110;5.548;2023-03-23T07:16:56;2.45;;;1.30;;
24743;SDS011;12844;52.110;5.548;2023-03-23T07:19:21;3.30;;;1.23;;
24743;SDS011;12844;52.110;5.548;2023-03-23T07:21:47;3.22;;;1.30;;
24743;SDS011;12844;52.110;5.548;2023-03-23T07:24:12;3.67;;;1.38;;
24743;SDS011;12844;52.110;5.548;2023-03-23T07:26:39;2.03;;;1.15;;
24743;SDS011;12844;52.110;5.548;2023-03-23T07:29:08;3.92;;;1.25;;
24743;SDS011;12844;52.110;5.548;2023-03-23T07:31:34;3.63;;;1.17;;
24743;SDS011;12844;52.110;5.548;2023-03-23T07:34:00;2.72;;;0.88;;
24743;SDS011;12844;52.110;5.548;2023-03-23T07:36:27;4.20;;;1.40;;
24743;SDS011;12844;52.110;5.548;2023-03-23T07:38:53;5.38;;;1.30;;
24743;SDS011;12844;52.110;5.548;2023-03-23T07:41:19;3.17;;;1.20;;
24743;SDS011;12844;52.110;5.548;2023-03-23T07:43:45;3.45;;;1.20;;
24743;SDS011;12844;52.110;5.548;2023-03-23T07:46:11;3.38;;;1.30;;
24743;SDS011;12844;52.110;5.548;2023-03-23T07:48:37;3.63;;;1.17;;
24743;SDS011;12844;52.110;5.548;2023-03-23T07:51:03;3.03;;;1.25;;
24743;SDS011;12844;52.110;5.548;2023-03-23T07:53:30;3.22;;;1.13;;
24743;SDS011;12844;52.110;5.548;2023-03-23T07:55:56;3.08;;;1.20;;
24743;SDS011;12844;52.110;5.548;2023-03-23T07:58:22;3.67;;;1.40;;
24743;SDS011;12844;52.110;5.548;2023-03-23T08:00:48;3.08;;;1.42;;
24743;SDS011;12844;52.110;5.548;2023-03-23T08:03:15;2.78;;;1.25;;
24743;SDS011;12844;52.110;5.548;2023-03-23T08:05:41;3.75;;;1.38;;
24743;SDS011;12844;52.110;5.548;2023-03-23T08:08:07;3.63;;;1.08;;
24743;SDS011;12844;52.110;5.548;2023-03-23T08:10:34;3.08;;;1.20;;
24743;SDS011;12844;52.110;5.548;2023-03-23T08:13:00;3.80;;;1.30;;
24743;SDS011;12844;52.110;5.548;2023-03-23T08:15:26;3.72;;;1.27;;
24743;SDS011;12844;52.110;5.548;2023-03-23T08:17:52;3.63;;;1.30;;
24743;SDS011;12844;52.110;5.548;2023-03-23T08:20:18;2.65;;;1.30;;
24743;SDS011;12844;52.110;5.548;2023-03-23T08:22:44;3.05;;;1.10;;
24743;SDS011;12844;52.110;5.548;2023-03-23T08:25:17;3.13;;;1.23;;
24743;SDS011;12844;52.110;5.548;2023-03-23T08:27:43;2.30;;;0.90;;
24743;SDS011;12844;52.110;5.548;2023-03-23T08:30:14;2.78;;;0.95;;
24743;SDS011;12844;52.110;5.548;2023-03-23T08:32:41;2.42;;;0.90;;
24743;SDS011;12844;52.110;5.548;2023-03-23T08:35:08;2.30;;;0.88;;
24743;SDS011;12844;52.110;5.548;2023-03-23T08:37:34;2.55;;;0.95;;
24743;SDS011;12844;52.110;5.548;2023-03-23T08:40:00;3.28;;;0.93;;
24743;SDS011;12844;52.110;5.548;2023-03-23T08:42:32;3.03;;;0.93;;
24743;SDS011;12844;52.110;5.548;2023-03-23T08:44:58;2.35;;;1.00;;
24743;SDS011;12844;52.110;5.548;2023-03-23T08:47:24;1.92;;;0.70;;
24743;SDS011;12844;52.110;5.548;2023-03-23T08:49:50;3.92;;;0.80;;
24743;SDS011;12844;52.110;5.548;2023-03-23T08:52:17;3.88;;;1.02;;
24743;SDS011;12844;52.110;5.548;2023-03-23T08:54:43;3.10;;;0.95;;
24743;SDS011;12844;52.110;5.548;2023-03-23T08:57:12;4.07;;;1.10;;
24743;SDS011;12844;52.110;5.548;2023-03-23T08:59:38;5.65;;;1.20;;
24743;SDS011;12844;52.110;5.548;2023-03-23T09:02:03;2.95;;;1.10;;
24743;SDS011;12844;52.110;5.548;2023-03-23T09:04:29;4.35;;;1.30;;
24743;SDS011;12844;52.110;5.548;2023-03-23T09:06:55;3.70;;;1.10;;
24743;SDS011;12844;52.110;5.548;2023-03-23T09:09:22;3.35;;;1.00;;
24743;SDS011;12844;52.110;5.548;2023-03-23T09:11:47;2.58;;;1.02;;
24743;SDS011;12844;52.110;5.548;2023-03-23T09:14:13;3.63;;;1.10;;
24743;SDS011;12844;52.110;5.548;2023-03-23T09:16:38;4.78;;;1.30;;
24743;SDS011;12844;52.110;5.548;2023-03-23T09:19:05;4.40;;;1.15;;
24743;SDS011;12844;52.110;5.548;2023-03-23T09:21:33;2.63;;;1.10;;
24743;SDS011;12844;52.110;5.548;2023-03-23T09:23:59;3.30;;;1.02;;
24743;SDS011;12844;52.110;5.548;2023-03-23T09:26:26;2.97;;;1.20;;
24743;SDS011;12844;52.110;5.548;2023-03-23T09:28:52;3.78;;;1.25;;
24743;SDS011;12844;52.110;5.548;2023-03-23T09:31:18;2.80;;;1.10;;
24743;SDS011;12844;52.110;5.548;2023-03-23T09:33:47;3.45;;;1.30;;
24743;SDS011;12844;52.110;5.548;2023-03-23T09:36:17;3.17;;;1.10;;
24743;SDS011;12844;52.110;5.548;2023-03-23T09:38:43;3.95;;;1.25;;
24743;SDS011;12844;52.110;5.548;2023-03-23T09:44:18;7.15;;;1.13;;
24743;SDS011;12844;52.110;5.548;2023-03-23T09:49:41;2.95;;;1.20;;
24743;SDS011;12844;52.110;5.548;2023-03-23T09:52:17;2.60;;;0.98;;
24743;SDS011;12844;52.110;5.548;2023-03-23T09:54:47;6.60;;;1.20;;
24743;SDS011;12844;52.110;5.548;2023-03-23T09:57:58;7.85;;;1.20;;
24743;SDS011;12844;52.110;5.548;2023-03-23T10:02:45;5.90;;;1.23;;
24743;SDS011;12844;52.110;5.548;2023-03-23T10:05:34;3.38;;;1.13;;
24743;SDS011;12844;52.110;5.548;2023-03-23T10:08:17;4.07;;;1.10;;
24743;SDS011;12844;52.110;5.548;2023-03-23T10:13:17;5.97;;;1.23;;
24743;SDS011;12844;52.110;5.548;2023-03-23T10:16:00;7.50;;;1.55;;
24743;SDS011;12844;52.110;5.548;2023-03-23T10:18:37;3.83;;;1.10;;
24743;SDS011;12844;52.110;5.548;2023-03-23T10:21:06;4.60;;;1.17;;
24743;SDS011;12844;52.110;5.548;2023-03-23T10:23:43;3.42;;;1.00;;
24743;SDS011;12844;52.110;5.548;2023-03-23T10:26:27;7.85;;;1.70;;
24743;SDS011;12844;52.110;5.548;2023-03-23T10:28:59;4.55;;;1.10;;
24743;SDS011;12844;52.110;5.548;2023-03-23T10:31:38;7.00;;;1.40;;
24743;SDS011;12844;52.110;5.548;2023-03-23T10:42:38;3.40;;;1.10;;
24743;SDS011;12844;52.110;5.548;2023-03-23T10:47:58;4.28;;;1.23;;
24743;SDS011;12844;52.110;5.548;2023-03-23T10:50:36;5.05;;;1.50;;
24743;SDS011;12844;52.110;5.548;2023-03-23T10:53:07;5.47;;;1.20;;
24743;SDS011;12844;52.110;5.548;2023-03-23T10:55:47;3.53;;;1.00;;
24743;SDS011;12844;52.110;5.548;2023-03-23T10:58:22;3.17;;;1.20;;
24743;SDS011;12844;52.110;5.548;2023-03-23T11:00:59;4.07;;;1.40;;
24743;SDS011;12844;52.110;5.548;2023-03-23T11:03:33;7.20;;;1.38;;
24743;SDS011;12844;52.110;5.548;2023-03-23T11:06:26;11.30;;;1.50;;
24743;SDS011;12844;52.110;5.548;2023-03-23T11:08:55;5.57;;;1.35;;
24743;SDS011;12844;52.110;5.548;2023-03-23T11:11:27;7.13;;;1.40;;
24743;SDS011;12844;52.110;5.548;2023-03-23T11:14:12;4.05;;;1.23;;
24743;SDS011;12844;52.110;5.548;2023-03-23T11:16:53;7.10;;;1.80;;
24743;SDS011;12844;52.110;5.548;2023-03-23T11:19:30;4.70;;;1.30;;
24743;SDS011;12844;52.110;5.548;2023-03-23T11:22:07;4.53;;;1.40;;
24743;SDS011;12844;52.110;5.548;2023-03-23T11:24:41;4.10;;;1.20;;
24743;SDS011;12844;52.110;5.548;2023-03-23T11:27:09;6.65;;;1.25;;
24743;SDS011;12844;52.110;5.548;2023-03-23T11:29:41;4.68;;;1.08;;
24743;SDS011;12844;52.110;5.548;2023-03-23T11:32:14;6.10;;;1.30;;
24743;SDS011;12844;52.110;5.548;2023-03-23T11:37:09;10.48;;;1.60;;
24743;SDS011;12844;52.110;5.548;2023-03-23T11:39:57;11.77;;;1.77;;
24743;SDS011;12844;52.110;5.548;2023-03-23T11:45:13;5.87;;;1.60;;
24743;SDS011;12844;52.110;5.548;2023-03-23T11:47:41;6.00;;;1.50;;
24743;SDS011;12844;52.110;5.548;2023-03-23T11:50:23;7.45;;;1.52;;
24743;SDS011;12844;52.110;5.548;2023-03-23T11:53:13;6.72;;;1.85;;
24743;SDS011;12844;52.110;5.548;2023-03-23T11:55:54;5.45;;;1.40;;
24743;SDS011;12844;52.110;5.548;2023-03-23T11:58:38;6.45;;;1.35;;
24743;SDS011;12844;52.110;5.548;2023-03-23T12:06:46;6.25;;;1.80;;
24743;SDS011;12844;52.110;5.548;2023-03-23T12:09:22;6.78;;;1.80;;
24743;SDS011;12844;52.110;5.548;2023-03-23T12:17:29;5.95;;;1.52;;
24743;SDS011;12844;52.110;5.548;2023-03-23T12:20:03;8.25;;;1.60;;
24743;SDS011;12844;52.110;5.548;2023-03-23T12:22:55;5.75;;;1.45;;
24743;SDS011;12844;52.110;5.548;2023-03-23T12:28:18;3.85;;;1.25;;
24743;SDS011;12844;52.110;5.548;2023-03-23T12:34:15;3.88;;;1.20;;
24743;SDS011;12844;52.110;5.548;2023-03-23T12:44:59;4.65;;;1.38;;
24743;SDS011;12844;52.110;5.548;2023-03-23T12:47:34;4.18;;;1.33;;
24743;SDS011;12844;52.110;5.548;2023-03-23T12:55:27;6.43;;;2.28;;
24743;SDS011;12844;52.110;5.548;2023-03-23T12:58:23;18.13;;;3.25;;
24743;SDS011;12844;52.110;5.548;2023-03-23T13:01:02;4.97;;;1.75;;
24743;SDS011;12844;52.110;5.548;2023-03-23T13:09:09;5.25;;;1.63;;
24743;SDS011;12844;52.110;5.548;2023-03-23T13:11:37;5.43;;;1.90;;
24743;SDS011;12844;52.110;5.548;2023-03-23T13:14:11;4.10;;;1.60;;
24743;SDS011;12844;52.110;5.548;2023-03-23T13:16:51;5.80;;;1.55;;
24743;SDS011;12844;52.110;5.548;2023-03-23T13:22:46;8.13;;;2.15;;
24743;SDS011;12844;52.110;5.548;2023-03-23T13:28:20;5.55;;;1.63;;
24743;SDS011;12844;52.110;5.548;2023-03-23T13:30:57;5.35;;;1.20;;
24743;SDS011;12844;52.110;5.548;2023-03-23T13:33:25;3.25;;;1.20;;
24743;SDS011;12844;52.110;5.548;2023-03-23T13:35:54;4.55;;;1.40;;
24743;SDS011;12844;52.110;5.548;2023-03-23T13:38:25;5.82;;;1.77;;
24743;SDS011;12844;52.110;5.548;2023-03-23T13:40:53;6.82;;;1.58;;
24743;SDS011;12844;52.110;5.548;2023-03-23T13:43:30;5.72;;;2.05;;
24743;SDS011;12844;52.110;5.548;2023-03-23T13:54:23;5.22;;;1.33;;
24743;SDS011;12844;52.110;5.548;2023-03-23T13:57:01;4.65;;;1.40;;
24743;SDS011;12844;52.110;5.548;2023-03-23T13:59:29;4.90;;;1.55;;
24743;SDS011;12844;52.110;5.548;2023-03-23T14:01:56;5.28;;;1.30;;
24743;SDS011;12844;52.110;5.548;2023-03-23T14:04:42;3.83;;;1.20;;
24743;SDS011;12844;52.110;5.548;2023-03-23T14:07:11;2.80;;;1.33;;
24743;SDS011;12844;52.110;5.548;2023-03-23T14:09:41;4.40;;;1.50;;
24743;SDS011;12844;52.110;5.548;2023-03-23T14:12:25;3.50;;;1.40;;
24743;SDS011;12844;52.110;5.548;2023-03-23T14:14:56;5.18;;;1.38;;
24743;SDS011;12844;52.110;5.548;2023-03-23T14:17:27;3.47;;;1.15;;
24743;SDS011;12844;52.110;5.548;2023-03-23T14:19:55;3.80;;;1.30;;
24743;SDS011;12844;52.110;5.548;2023-03-23T14:22:27;4.68;;;1.20;;
24743;SDS011;12844;52.110;5.548;2023-03-23T14:25:00;4.95;;;1.30;;
24743;SDS011;12844;52.110;5.548;2023-03-23T14:27:34;3.90;;;1.33;;
24743;SDS011;12844;52.110;5.548;2023-03-23T14:30:00;5.32;;;1.30;;
24743;SDS011;12844;52.110;5.548;2023-03-23T14:32:31;3.47;;;1.43;;
24743;SDS011;12844;52.110;5.548;2023-03-23T14:34:58;5.03;;;1.48;;
24743;SDS011;12844;52.110;5.548;2023-03-23T14:37:25;2.67;;;1.05;;
24743;SDS011;12844;52.110;5.548;2023-03-23T14:39:52;4.68;;;1.45;;
24743;SDS011;12844;52.110;5.548;2023-03-23T14:42:26;2.22;;;1.10;;
24743;SDS011;12844;52.110;5.548;2023-03-23T14:44:56;3.08;;;1.20;;
24743;SDS011;12844;52.110;5.548;2023-03-23T14:47:25;4.10;;;1.27;;
24743;SDS011;12844;52.110;5.548;2023-03-23T14:49:55;2.80;;;1.10;;
24743;SDS011;12844;52.110;5.548;2023-03-23T14:52:24;3.35;;;1.00;;
24743;SDS011;12844;52.110;5.548;2023-03-23T14:54:51;3.13;;;1.30;;
24743;SDS011;12844;52.110;5.548;2023-03-23T14:57:27;3.17;;;1.23;;
24743;SDS011;12844;52.110;5.548;2023-03-23T14:59:53;2.55;;;1.00;;
24743;SDS011;12844;52.110;5.548;2023-03-23T15:02:33;4.85;;;1.23;;
24743;SDS011;12844;52.110;5.548;2023-03-23T15:05:03;4.40;;;1.33;;
24743;SDS011;12844;52.110;5.548;2023-03-23T15:07:36;4.63;;;1.10;;
24743;SDS011;12844;52.110;5.548;2023-03-23T15:10:07;4.97;;;1.42;;
24743;SDS011;12844;52.110;5.548;2023-03-23T15:12:36;2.55;;;1.00;;
24743;SDS011;12844;52.110;5.548;2023-03-23T15:15:03;3.88;;;1.10;;
24743;SDS011;12844;52.110;5.548;2023-03-23T15:17:34;3.10;;;0.95;;
24743;SDS011;12844;52.110;5.548;2023-03-23T15:22:56;2.85;;;1.00;;
24743;SDS011;12844;52.110;5.548;2023-03-23T15:25:31;3.63;;;1.00;;
24743;SDS011;12844;52.110;5.548;2023-03-23T15:28:07;2.90;;;1.17;;
24743;SDS011;12844;52.110;5.548;2023-03-23T15:30:50;2.97;;;0.88;;
24743;SDS011;12844;52.110;5.548;2023-03-23T15:33:18;3.03;;;1.13;;
24743;SDS011;12844;52.110;5.548;2023-03-23T15:35:51;2.78;;;0.90;;
24743;SDS011;12844;52.110;5.548;2023-03-23T15:38:21;2.67;;;1.10;;
24743;SDS011;12844;52.110;5.548;2023-03-23T15:40:51;2.40;;;1.00;;
24743;SDS011;12844;52.110;5.548;2023-03-23T15:48:45;2.30;;;1.00;;
24743;SDS011;12844;52.110;5.548;2023-03-23T15:51:13;3.25;;;0.90;;
24743;SDS011;12844;52.110;5.548;2023-03-23T15:53:39;3.90;;;1.00;;
24743;SDS011;12844;52.110;5.548;2023-03-23T15:56:07;3.75;;;1.02;;
24743;SDS011;12844;52.110;5.548;2023-03-23T15:58:35;3.65;;;1.33;;
24743;SDS011;12844;52.110;5.548;2023-03-23T16:01:02;3.50;;;1.02;;
24743;SDS011;12844;52.110;5.548;2023-03-23T16:03:34;2.28;;;0.90;;
24743;SDS011;12844;52.110;5.548;2023-03-23T16:06:17;2.75;;;0.98;;
24743;SDS011;12844;52.110;5.548;2023-03-23T16:08:45;3.10;;;0.90;;
24743;SDS011;12844;52.110;5.548;2023-03-23T16:11:11;4.95;;;1.20;;
24743;SDS011;12844;52.110;5.548;2023-03-23T16:13:38;3.03;;;1.13;;
24743;SDS011;12844;52.110;5.548;2023-03-23T16:16:04;4.38;;;0.98;;
24743;SDS011;12844;52.110;5.548;2023-03-23T16:18:32;4.63;;;1.13;;
24743;SDS011;12844;52.110;5.548;2023-03-23T16:20:58;4.60;;;1.00;;
24743;SDS011;12844;52.110;5.548;2023-03-23T16:23:25;5.45;;;1.33;;
24743;SDS011;12844;52.110;5.548;2023-03-23T16:25:50;4.60;;;1.08;;
24743;SDS011;12844;52.110;5.548;2023-03-23T16:28:16;4.00;;;1.00;;
24743;SDS011;12844;52.110;5.548;2023-03-23T16:30:42;7.75;;;1.75;;
24743;SDS011;12844;52.110;5.548;2023-03-23T16:33:08;4.85;;;1.20;;
24743;SDS011;12844;52.110;5.548;2023-03-23T16:35:34;3.20;;;1.13;;
24743;SDS011;12844;52.110;5.548;2023-03-23T16:38:00;5.40;;;0.80;;
24743;SDS011;12844;52.110;5.548;2023-03-23T16:40:26;4.45;;;1.10;;
24743;SDS011;12844;52.110;5.548;2023-03-23T16:42:52;3.38;;;1.25;;
24743;SDS011;12844;52.110;5.548;2023-03-23T16:45:18;5.25;;;1.30;;